Ulan Bator, Mongolia
Current Conditions -  °F | °C
As of 12:00 PM on Saturday 20 Dec 2014 (Local Time) from ZMUB Reporting Station
Clear Clear  
Wind Chill: -4°   Ceiling: Unl
Heat Index: -4°   Visibility: 6mi
Dew Point: -9°   Wind: 2mph
Humidity: 78%   Direction: NA
Pressure: 30.36"   Gusts: NA
Location:  47.92°N, 106.91°E
Report Text: ZMUB 200400Z VRB01MPS CAVOK M20/M23 Q1028 NOSIG RMK QFE662.5 71
Loading
Personal Weather Stations






























Interactive Weather Map New forecast layout! Learn more

10-Day Weather Forecast

Advertisements
Track Severe Weather on mobile